createdAt,value
2018-08-10T00:02:13.859Z,4.10
2018-08-10T00:04:41.063Z,4.80
2018-08-10T00:07:08.292Z,7.10
2018-08-10T00:09:35.406Z,8.20
2018-08-10T00:12:02.659Z,8.17
2018-08-10T00:14:29.835Z,7.30
2018-08-10T00:16:57.091Z,6.07
2018-08-10T00:19:24.377Z,3.43
2018-08-10T00:21:51.497Z,3.93
2018-08-10T00:24:18.652Z,2.73
2018-08-10T00:26:45.805Z,3.20
2018-08-10T00:29:13.017Z,3.30
2018-08-10T00:31:40.169Z,3.70
2018-08-10T00:34:07.372Z,2.90
2018-08-10T00:36:34.480Z,2.47
2018-08-10T00:39:01.689Z,2.90
2018-08-10T00:41:28.886Z,2.83
2018-08-10T00:43:56.003Z,3.17
2018-08-10T00:46:23.181Z,2.80
2018-08-10T00:48:50.366Z,2.80
2018-08-10T00:51:17.512Z,3.50
2018-08-10T00:53:44.804Z,3.50
2018-08-10T00:56:11.885Z,4.10
2018-08-10T00:58:39.006Z,2.93
2018-08-10T01:01:06.165Z,2.93
2018-08-10T01:03:33.328Z,3.00
2018-08-10T01:06:00.477Z,3.80
2018-08-10T01:08:27.634Z,3.30
2018-08-10T01:10:54.740Z,2.80
2018-08-10T01:13:21.982Z,2.93
2018-08-10T01:15:49.038Z,2.33
2018-08-10T01:18:16.211Z,1.80
2018-08-10T01:20:43.365Z,2.60
2018-08-10T01:23:10.521Z,2.40
2018-08-10T01:25:37.660Z,2.90
2018-08-10T01:28:05.319Z,2.90
2018-08-10T01:30:33.619Z,2.37
2018-08-10T01:33:01.126Z,2.33
2018-08-10T01:35:28.712Z,2.47
2018-08-10T01:37:57.104Z,2.10
2018-08-10T01:40:24.250Z,2.17
2018-08-10T01:42:51.401Z,2.30
2018-08-10T01:45:18.541Z,2.77
2018-08-10T01:47:45.990Z,2.60
2018-08-10T01:50:13.152Z,1.93
2018-08-10T01:52:40.371Z,2.50
2018-08-10T01:55:08.067Z,1.87
2018-08-10T01:57:36.749Z,2.27
2018-08-10T02:00:05.289Z,2.30
2018-08-10T02:02:32.519Z,1.93
2018-08-10T02:04:59.640Z,2.57
2018-08-10T02:07:26.796Z,2.40
2018-08-10T02:09:53.944Z,1.93
2018-08-10T02:12:21.181Z,2.50
2018-08-10T02:14:48.339Z,2.20
2018-08-10T02:17:15.442Z,1.77
2018-08-10T02:19:42.680Z,1.73
2018-08-10T02:22:09.848Z,1.80
2018-08-10T02:24:36.953Z,2.20
2018-08-10T02:27:04.097Z,1.90
2018-08-10T02:29:31.265Z,2.30
2018-08-10T02:31:58.411Z,2.00
2018-08-10T02:34:25.724Z,1.80
2018-08-10T02:36:52.864Z,2.70
2018-08-10T02:39:20.049Z,2.20
2018-08-10T02:41:47.204Z,2.23
2018-08-10T02:44:14.377Z,1.73
2018-08-10T02:46:41.832Z,2.10
2018-08-10T02:49:08.993Z,2.37
2018-08-10T02:51:36.137Z,2.30
2018-08-10T02:54:03.451Z,2.17
2018-08-10T02:56:30.751Z,2.37
2018-08-10T02:58:57.928Z,2.00
2018-08-10T03:01:25.114Z,2.53
2018-08-10T03:03:52.499Z,2.50
2018-08-10T03:06:19.619Z,2.50
2018-08-10T03:08:46.788Z,2.00
2018-08-10T03:11:13.897Z,2.27
2018-08-10T03:13:41.016Z,2.87
2018-08-10T03:16:08.187Z,2.60
2018-08-10T03:18:35.416Z,2.37
2018-08-10T03:21:02.612Z,2.40
2018-08-10T03:23:29.815Z,2.10
2018-08-10T03:25:57.050Z,2.03
2018-08-10T03:28:24.333Z,2.90
2018-08-10T03:30:51.464Z,2.23
2018-08-10T03:33:18.620Z,2.70
2018-08-10T03:35:46.088Z,2.67
2018-08-10T03:38:13.264Z,2.30
2018-08-10T03:40:40.457Z,2.90
2018-08-10T03:43:07.083Z,2.70
2018-08-10T03:45:34.221Z,2.10
2018-08-10T03:48:01.391Z,2.70
2018-08-10T03:50:28.536Z,2.70
2018-08-10T03:52:55.679Z,2.80
2018-08-10T03:55:22.788Z,2.37
2018-08-10T03:57:49.982Z,2.67
2018-08-10T04:00:17.108Z,2.60
2018-08-10T04:02:44.304Z,2.33
2018-08-10T04:05:12.089Z,2.83
2018-08-10T04:07:39.396Z,2.60
2018-08-10T04:10:07.194Z,2.83
2018-08-10T04:12:34.746Z,2.50
2018-08-10T04:15:01.916Z,2.80
2018-08-10T04:17:29.133Z,2.80
2018-08-10T04:19:56.272Z,2.70
2018-08-10T04:22:24.305Z,3.03
2018-08-10T04:24:51.460Z,2.50
2018-08-10T04:27:18.776Z,2.53
2018-08-10T04:29:46.172Z,2.70
2018-08-10T04:32:13.324Z,2.70
2018-08-10T04:34:40.405Z,2.47
2018-08-10T04:37:07.541Z,2.70
2018-08-10T04:39:34.668Z,2.80
2018-08-10T04:42:01.807Z,2.67
2018-08-10T04:44:28.963Z,2.43
2018-08-10T04:46:56.124Z,2.83
2018-08-10T04:49:23.281Z,2.80
2018-08-10T04:51:50.424Z,3.23
2018-08-10T04:54:17.588Z,3.40
2018-08-10T04:56:44.803Z,2.83
2018-08-10T04:59:11.944Z,2.43
2018-08-10T05:01:39.233Z,3.17
2018-08-10T05:04:06.457Z,2.90
2018-08-10T05:06:33.593Z,2.57
2018-08-10T05:09:00.760Z,2.70
2018-08-10T05:11:27.892Z,2.80
2018-08-10T05:13:55.035Z,2.83
2018-08-10T05:16:22.227Z,3.20
2018-08-10T05:18:49.417Z,2.80
2018-08-10T05:21:16.561Z,2.90
2018-08-10T05:23:43.743Z,2.73
2018-08-10T05:26:10.900Z,2.33
2018-08-10T05:28:38.089Z,2.50
2018-08-10T05:31:05.237Z,2.73
2018-08-10T05:33:32.389Z,2.43
2018-08-10T05:35:59.863Z,2.50
2018-08-10T05:38:27.003Z,3.20
2018-08-10T05:40:54.147Z,2.63
2018-08-10T05:43:21.276Z,2.17
2018-08-10T05:45:48.552Z,2.43
2018-08-10T05:48:15.668Z,2.20
2018-08-10T05:50:42.912Z,2.80
2018-08-10T05:53:10.073Z,2.40
2018-08-10T05:55:37.260Z,1.83
2018-08-10T05:58:04.777Z,2.53
2018-08-10T06:00:31.961Z,2.27
2018-08-10T06:02:59.153Z,1.47
2018-08-10T06:05:26.268Z,1.50
2018-08-10T06:07:53.435Z,1.50
2018-08-10T06:10:20.580Z,1.30
2018-08-10T06:12:47.719Z,1.27
2018-08-10T06:15:14.877Z,1.60
2018-08-10T06:17:42.017Z,1.67
2018-08-10T06:20:10.305Z,1.60
2018-08-10T06:22:37.476Z,1.30
2018-08-10T06:25:04.979Z,1.47
2018-08-10T06:27:32.062Z,1.40
2018-08-10T06:29:59.241Z,0.93
2018-08-10T06:32:26.385Z,1.30
2018-08-10T06:34:53.541Z,1.10
2018-08-10T06:37:20.685Z,0.97
2018-08-10T06:39:47.831Z,1.23
2018-08-10T06:42:14.964Z,1.47
2018-08-10T06:44:42.176Z,1.00
2018-08-10T06:47:09.361Z,1.10
2018-08-10T06:49:36.512Z,1.03
2018-08-10T06:52:03.831Z,1.13
2018-08-10T06:54:30.964Z,1.00
2018-08-10T06:56:58.172Z,0.90
2018-08-10T06:59:25.296Z,1.13
2018-08-10T07:01:52.459Z,0.80
2018-08-10T07:04:19.617Z,1.10
2018-08-10T07:06:46.735Z,0.90
2018-08-10T07:09:13.880Z,1.27
2018-08-10T07:11:41.019Z,0.80
2018-08-10T07:14:08.182Z,1.00
2018-08-10T07:16:36.383Z,0.90
2018-08-10T07:19:03.532Z,0.90
2018-08-10T07:21:30.704Z,0.73
2018-08-10T07:23:58.059Z,0.90
2018-08-10T07:26:25.281Z,1.10
2018-08-10T07:28:52.452Z,0.80
2018-08-10T07:31:19.591Z,1.00
2018-08-10T07:33:46.732Z,0.90
2018-08-10T07:36:13.947Z,0.87
2018-08-10T07:38:41.095Z,0.80
2018-08-10T07:41:08.228Z,0.80
2018-08-10T07:43:35.396Z,0.80
2018-08-10T07:46:02.517Z,0.90
2018-08-10T07:48:29.764Z,0.80
2018-08-10T07:50:56.993Z,1.07
2018-08-10T07:53:24.129Z,1.00
2018-08-10T07:55:51.268Z,0.90
2018-08-10T07:58:18.375Z,0.90
2018-08-10T08:00:45.530Z,0.80
2018-08-10T08:03:12.803Z,0.90
2018-08-10T08:05:39.959Z,0.80
2018-08-10T08:08:07.117Z,1.17
2018-08-10T08:10:33.823Z,0.90
2018-08-10T08:13:00.920Z,0.80
2018-08-10T08:15:28.049Z,0.80
2018-08-10T08:17:55.289Z,1.00
2018-08-10T08:20:22.472Z,0.90
2018-08-10T08:23:02.774Z,1.83
2018-08-10T08:25:29.943Z,0.80
2018-08-10T08:27:57.116Z,1.00
2018-08-10T08:30:24.327Z,2.70
2018-08-10T08:32:51.488Z,1.00
2018-08-10T08:35:18.749Z,0.80
2018-08-10T08:37:46.035Z,1.00
2018-08-10T08:40:16.348Z,0.97
2018-08-10T08:42:44.607Z,1.30
2018-08-10T08:45:46.692Z,1.30
2018-08-10T08:48:13.834Z,0.90
2018-08-10T08:50:42.383Z,1.13
2018-08-10T08:53:09.615Z,0.70
2018-08-10T08:55:42.845Z,0.90
2018-08-10T08:58:10.062Z,1.10
2018-08-10T09:00:37.280Z,0.70
2018-08-10T09:03:04.818Z,0.90
2018-08-10T09:05:32.055Z,1.10
2018-08-10T09:07:59.249Z,1.20
2018-08-10T09:10:26.400Z,0.90
2018-08-10T09:12:53.607Z,0.77
2018-08-10T09:15:21.548Z,1.00
2018-08-10T09:17:48.789Z,0.80
2018-08-10T09:20:15.933Z,0.90
2018-08-10T09:22:43.207Z,0.93
2018-08-10T09:25:12.548Z,0.90
2018-08-10T09:27:39.743Z,0.90
2018-08-10T09:30:08.596Z,0.80
2018-08-10T09:32:35.869Z,0.83
2018-08-10T09:35:04.513Z,1.10
2018-08-10T09:37:31.857Z,0.80
2018-08-10T09:39:58.994Z,0.90
2018-08-10T09:42:26.248Z,0.83
2018-08-10T09:44:53.408Z,1.07
2018-08-10T09:47:20.576Z,0.90
2018-08-10T09:49:48.862Z,0.80
2018-08-10T09:52:16.156Z,0.73
2018-08-10T09:55:29.112Z,0.90
2018-08-10T09:57:57.693Z,0.80
2018-08-10T10:00:30.603Z,0.90
2018-08-10T10:03:03.520Z,0.80
2018-08-10T10:05:30.809Z,0.90
2018-08-10T10:07:57.992Z,0.90
2018-08-10T10:10:25.255Z,0.80
2018-08-10T10:12:52.724Z,0.90
2018-08-10T10:15:20.309Z,0.80
2018-08-10T10:17:47.491Z,0.80
2018-08-10T10:20:15.116Z,1.10
2018-08-10T10:22:42.301Z,0.90
2018-08-10T10:25:09.548Z,0.80
2018-08-10T10:27:36.768Z,1.00
2018-08-10T10:30:05.512Z,0.90
2018-08-10T10:32:32.763Z,1.10
2018-08-10T10:34:59.928Z,0.90
2018-08-10T10:37:27.177Z,1.10
2018-08-10T10:39:54.385Z,1.23
2018-08-10T10:42:21.548Z,0.80
2018-08-10T10:44:49.004Z,1.00
2018-08-10T10:47:16.422Z,1.40
2018-08-10T10:49:43.628Z,1.00
2018-08-10T10:52:10.816Z,0.90
2018-08-10T10:54:38.032Z,0.93
2018-08-10T10:57:05.340Z,1.10
2018-08-10T10:59:32.553Z,1.17
2018-08-10T11:01:59.755Z,0.90
2018-08-10T11:04:26.943Z,1.13
2018-08-10T11:06:54.150Z,0.97
2018-08-10T11:09:21.458Z,1.00
2018-08-10T11:11:48.641Z,1.17
2018-08-10T11:14:15.783Z,0.93
2018-08-10T11:16:42.992Z,0.90
2018-08-10T11:19:10.155Z,1.00
2018-08-10T11:21:37.308Z,1.10
2018-08-10T11:24:04.511Z,1.37
2018-08-10T11:26:31.721Z,1.00
2018-08-10T11:28:58.984Z,0.90
2018-08-10T11:31:26.185Z,1.23
2018-08-10T11:33:53.373Z,1.13
2018-08-10T11:36:20.547Z,0.90
2018-08-10T11:38:47.747Z,1.00
2018-08-10T11:41:14.964Z,0.90
2018-08-10T11:43:42.220Z,1.20
2018-08-10T11:46:09.462Z,1.00
2018-08-10T11:48:36.643Z,0.97
2018-08-10T11:51:03.836Z,1.00
2018-08-10T11:53:31.598Z,0.80
2018-08-10T11:55:58.827Z,1.00
2018-08-10T11:58:25.989Z,1.13
2018-08-10T12:00:53.220Z,1.10
2018-08-10T12:03:20.450Z,1.10
2018-08-10T12:05:47.690Z,0.90
2018-08-10T12:08:14.947Z,1.20
2018-08-10T12:10:42.172Z,1.07
2018-08-10T12:13:09.408Z,1.53
2018-08-10T12:15:36.629Z,1.13
2018-08-10T12:18:03.860Z,1.23
2018-08-10T12:20:31.063Z,0.90
2018-08-10T12:22:58.252Z,1.10
2018-08-10T12:25:25.515Z,1.00
2018-08-10T12:27:52.787Z,1.30
2018-08-10T12:30:20.055Z,1.00
2018-08-10T12:32:47.212Z,1.07
2018-08-10T12:35:14.376Z,0.97
2018-08-10T12:37:41.588Z,1.10
2018-08-10T12:40:08.818Z,1.03
2018-08-10T12:42:36.382Z,1.50
2018-08-10T12:45:05.043Z,1.10
2018-08-10T12:47:32.250Z,1.00
2018-08-10T12:49:59.464Z,0.90
2018-08-10T12:52:26.695Z,1.00
2018-08-10T12:54:53.912Z,0.90
2018-08-10T12:57:21.305Z,1.20
2018-08-10T12:59:48.452Z,0.93
2018-08-10T13:02:15.675Z,0.90
2018-08-10T13:04:42.890Z,1.30
2018-08-10T13:07:10.059Z,1.10
2018-08-10T13:09:37.293Z,1.30
2018-08-10T13:12:04.546Z,1.13
2018-08-10T13:14:31.818Z,0.80
2018-08-10T13:16:58.985Z,1.07
2018-08-10T13:19:26.184Z,1.07
2018-08-10T13:21:53.405Z,1.00
2018-08-10T13:24:20.642Z,1.60
2018-08-10T13:26:47.864Z,1.10
2018-08-10T13:29:15.089Z,0.90
2018-08-10T13:31:42.276Z,1.00
2018-08-10T13:34:09.648Z,1.20
2018-08-10T13:36:36.926Z,1.00
2018-08-10T13:39:07.788Z,0.93
2018-08-10T13:41:35.126Z,1.10
2018-08-10T13:44:02.528Z,1.00
2018-08-10T13:46:29.699Z,1.00
2018-08-10T13:48:57.007Z,1.00
2018-08-10T13:51:24.166Z,1.00
2018-08-10T13:53:51.481Z,0.90
2018-08-10T13:56:18.652Z,1.20
2018-08-10T13:58:45.993Z,1.33
2018-08-10T14:01:13.116Z,1.13
2018-08-10T14:03:40.344Z,1.00
2018-08-10T14:06:07.640Z,1.20
2018-08-10T14:08:34.773Z,1.00
2018-08-10T14:11:01.984Z,1.27
2018-08-10T14:13:29.189Z,1.23
2018-08-10T14:15:56.452Z,1.10
2018-08-10T14:18:23.579Z,1.33
2018-08-10T14:20:50.780Z,0.93
2018-08-10T14:23:17.948Z,1.20
2018-08-10T14:25:45.118Z,1.40
2018-08-10T14:28:12.418Z,1.17
2018-08-10T14:30:39.613Z,1.10
2018-08-10T14:33:06.846Z,1.10
2018-08-10T14:35:34.088Z,0.90
2018-08-10T14:38:01.271Z,1.10
2018-08-10T14:40:28.449Z,1.00
2018-08-10T14:42:55.709Z,1.10
2018-08-10T14:45:22.881Z,1.07
2018-08-10T14:47:50.074Z,0.90
2018-08-10T14:50:17.305Z,0.73
2018-08-10T14:52:44.618Z,1.00
2018-08-10T14:55:13.733Z,1.00
2018-08-10T14:57:40.985Z,1.00
2018-08-10T15:00:13.245Z,1.07
2018-08-10T15:02:40.421Z,0.87
2018-08-10T15:05:08.023Z,1.27
2018-08-10T15:07:35.195Z,0.80
2018-08-10T15:10:02.538Z,1.27
2018-08-10T15:12:29.886Z,1.37
2018-08-10T15:14:56.913Z,1.00
2018-08-10T15:17:24.103Z,1.10
2018-08-10T15:19:51.300Z,1.00
2018-08-10T15:22:18.538Z,1.30
2018-08-10T15:24:45.613Z,1.00
2018-08-10T15:27:12.865Z,0.93
2018-08-10T15:29:40.164Z,1.07
2018-08-10T15:32:07.394Z,1.00
2018-08-10T15:34:34.543Z,1.30
2018-08-10T15:37:01.770Z,1.33
2018-08-10T15:39:28.908Z,1.30
2018-08-10T15:41:56.120Z,1.07
2018-08-10T15:44:23.232Z,1.30
2018-08-10T15:46:50.520Z,1.10
2018-08-10T15:49:17.692Z,1.43
2018-08-10T15:51:44.896Z,1.40
2018-08-10T15:54:12.092Z,1.90
2018-08-10T15:56:39.517Z,2.27
2018-08-10T15:59:06.614Z,2.10
2018-08-10T16:01:33.948Z,2.30
2018-08-10T16:04:01.085Z,2.10
2018-08-10T16:06:28.291Z,1.83
2018-08-10T16:08:55.720Z,1.40
2018-08-10T16:11:22.893Z,1.10
2018-08-10T16:13:50.195Z,1.47
2018-08-10T16:16:17.485Z,0.93
2018-08-10T16:18:45.038Z,0.90
2018-08-10T16:21:12.262Z,1.30
2018-08-10T16:23:39.374Z,0.90
2018-08-10T16:26:06.873Z,1.10
2018-08-10T16:28:34.061Z,1.27
2018-08-10T16:31:01.246Z,0.90
2018-08-10T16:33:28.512Z,1.10
2018-08-10T16:35:55.743Z,0.90
2018-08-10T16:38:23.077Z,1.00
2018-08-10T16:40:50.227Z,1.33
2018-08-10T16:43:17.499Z,1.10
2018-08-10T16:45:44.727Z,1.00
2018-08-10T16:48:11.931Z,1.00
2018-08-10T16:51:16.615Z,1.13
2018-08-10T16:53:43.768Z,1.23
2018-08-10T16:56:11.053Z,1.07
2018-08-10T16:58:38.284Z,1.27
2018-08-10T17:01:06.817Z,1.20
2018-08-10T17:03:34.069Z,1.60
2018-08-10T17:06:01.298Z,1.43
2018-08-10T17:08:28.595Z,1.47
2018-08-10T17:10:55.811Z,1.20
2018-08-10T17:13:23.012Z,0.93
2018-08-10T17:15:50.191Z,1.00
2018-08-10T17:18:17.332Z,1.00
2018-08-10T17:20:44.642Z,1.10
2018-08-10T17:23:12.015Z,0.90
2018-08-10T17:25:39.254Z,0.90
2018-08-10T17:28:06.460Z,1.00
2018-08-10T17:30:33.849Z,1.10
2018-08-10T17:33:01.036Z,1.30
2018-08-10T17:35:28.321Z,1.00
2018-08-10T17:38:02.192Z,1.10
2018-08-10T17:40:29.947Z,0.97
2018-08-10T17:42:57.076Z,0.90
2018-08-10T17:45:24.317Z,1.57
2018-08-10T17:47:51.503Z,1.10
2018-08-10T17:50:19.835Z,1.30
2018-08-10T17:52:49.481Z,1.57
2018-08-10T17:55:17.000Z,2.30
2018-08-10T17:57:44.505Z,3.80
2018-08-10T18:00:15.222Z,1.10
2018-08-10T18:02:42.872Z,1.10
2018-08-10T18:05:11.840Z,0.97
2018-08-10T18:07:39.912Z,1.00
2018-08-10T18:10:08.033Z,1.27
2018-08-10T18:12:36.352Z,1.10
2018-08-10T18:15:05.845Z,1.30
2018-08-10T18:17:33.038Z,0.90
2018-08-10T18:20:00.225Z,1.30
2018-08-10T18:22:27.374Z,1.37
2018-08-10T18:24:54.638Z,1.40
2018-08-10T18:27:21.869Z,1.33
2018-08-10T18:29:48.973Z,1.47
2018-08-10T18:32:16.132Z,1.30
2018-08-10T18:34:43.275Z,1.43
2018-08-10T18:37:10.481Z,1.67
2018-08-10T18:39:37.679Z,1.80
2018-08-10T18:42:05.231Z,1.90
2018-08-10T18:44:32.412Z,1.60
2018-08-10T18:46:59.640Z,1.40
2018-08-10T18:49:26.823Z,2.10
2018-08-10T18:51:54.025Z,1.80
2018-08-10T18:54:21.215Z,1.90
2018-08-10T18:56:48.513Z,2.90
2018-08-10T18:59:15.708Z,2.07
2018-08-10T19:01:42.896Z,2.40
2018-08-10T19:04:10.118Z,2.63
2018-08-10T19:06:37.324Z,2.57
2018-08-10T19:09:07.265Z,3.10
2018-08-10T19:11:34.482Z,3.10
2018-08-10T19:14:01.649Z,3.30
2018-08-10T19:16:28.856Z,3.17
2018-08-10T19:18:56.055Z,3.67
2018-08-10T19:21:23.236Z,2.97
2018-08-10T19:23:50.377Z,3.87
2018-08-10T19:26:17.610Z,3.13
2018-08-10T19:28:44.777Z,3.13
2018-08-10T19:31:11.945Z,3.10
2018-08-10T19:33:39.234Z,4.10
2018-08-10T19:36:06.400Z,3.27
2018-08-10T19:38:34.332Z,3.33
2018-08-10T19:41:01.577Z,3.80
2018-08-10T19:43:28.771Z,3.43
2018-08-10T19:45:56.002Z,3.30
2018-08-10T19:48:23.266Z,3.60
2018-08-10T19:50:50.480Z,3.70
2018-08-10T19:53:17.695Z,3.40
2018-08-10T19:55:44.911Z,3.80
2018-08-10T19:58:12.117Z,2.97
2018-08-10T20:00:39.362Z,3.67
2018-08-10T20:03:06.561Z,4.30
2018-08-10T20:05:33.724Z,4.40
2018-08-10T20:08:00.973Z,3.93
2018-08-10T20:10:28.158Z,3.57
2018-08-10T20:12:55.337Z,4.33
2018-08-10T20:15:22.628Z,4.27
2018-08-10T20:17:49.767Z,4.50
2018-08-10T20:20:18.000Z,4.27
2018-08-10T20:22:45.680Z,4.57
2018-08-10T20:25:13.320Z,3.73
2018-08-10T20:27:40.559Z,4.23
2018-08-10T20:30:10.476Z,4.70
2018-08-10T20:32:37.974Z,4.37
2018-08-10T20:35:07.148Z,4.23
2018-08-10T20:37:34.364Z,4.83
2018-08-10T20:40:01.554Z,4.80
2018-08-10T20:42:28.784Z,4.47
2018-08-10T20:44:56.070Z,4.17
2018-08-10T20:47:23.273Z,5.30
2018-08-10T20:49:50.476Z,4.43
2018-08-10T20:52:17.644Z,5.43
2018-08-10T20:54:44.834Z,5.23
2018-08-10T20:57:12.047Z,4.47
2018-08-10T20:59:39.325Z,4.63
2018-08-10T21:02:06.668Z,5.20
2018-08-10T21:04:33.903Z,4.40
2018-08-10T21:07:01.188Z,4.20
2018-08-10T21:09:28.452Z,4.30
2018-08-10T21:11:55.648Z,4.33
2018-08-10T21:14:22.859Z,3.70
2018-08-10T21:16:50.101Z,3.67
2018-08-10T21:19:17.278Z,4.47
2018-08-10T21:21:44.468Z,4.10
2018-08-10T21:24:11.686Z,4.23
2018-08-10T21:26:38.851Z,4.50
2018-08-10T21:29:06.006Z,4.43
2018-08-10T21:31:33.163Z,3.80
2018-08-10T21:34:00.361Z,3.97
2018-08-10T21:36:27.511Z,4.30
2018-08-10T21:38:54.705Z,4.33
2018-08-10T21:41:21.940Z,4.30
2018-08-10T21:43:49.114Z,4.63
2018-08-10T21:46:16.247Z,4.00
2018-08-10T21:48:43.433Z,4.30
2018-08-10T21:54:28.370Z,4.90
2018-08-10T21:56:55.628Z,4.67
2018-08-10T21:59:22.783Z,5.00
2018-08-10T22:01:50.039Z,4.60
2018-08-10T22:04:17.234Z,4.47
2018-08-10T22:06:44.476Z,4.80
2018-08-10T22:09:11.648Z,4.37
2018-08-10T22:11:38.950Z,4.40
2018-08-10T22:14:11.677Z,4.60
2018-08-10T22:16:44.677Z,5.50
2018-08-10T22:19:12.735Z,5.47
2018-08-10T22:21:40.376Z,5.17
2018-08-10T22:24:07.568Z,4.80
2018-08-10T22:26:34.773Z,5.10
2018-08-10T22:29:01.965Z,4.87
2018-08-10T22:31:29.157Z,5.40
2018-08-10T22:33:56.371Z,4.90
2018-08-10T22:36:23.642Z,4.03
2018-08-10T22:38:57.715Z,4.70
2018-08-10T22:41:24.969Z,5.30
2018-08-10T22:43:52.160Z,4.30
2018-08-10T22:46:25.473Z,4.23
2018-08-10T22:48:52.700Z,3.73
2018-08-10T22:51:19.920Z,4.00
2018-08-10T22:53:47.217Z,4.43
2018-08-10T22:56:14.432Z,4.70
2018-08-10T22:58:41.739Z,3.70
2018-08-10T23:01:09.012Z,4.77
2018-08-10T23:03:39.632Z,4.63
2018-08-10T23:06:06.860Z,5.23
2018-08-10T23:08:34.195Z,5.90
2018-08-10T23:11:01.316Z,6.30
2018-08-10T23:13:28.643Z,6.77
2018-08-10T23:15:56.338Z,6.30
2018-08-10T23:18:23.516Z,6.40
2018-08-10T23:20:50.708Z,5.60
2018-08-10T23:23:17.947Z,5.87
2018-08-10T23:25:45.162Z,6.30
2018-08-10T23:30:46.432Z,6.47
2018-08-10T23:33:13.636Z,5.43
2018-08-10T23:35:40.787Z,6.17
2018-08-10T23:38:08.013Z,6.57
2018-08-10T23:43:38.068Z,6.90
2018-08-10T23:46:05.860Z,7.90
2018-08-10T23:48:33.049Z,7.73
2018-08-10T23:51:00.228Z,9.10
2018-08-10T23:53:27.377Z,7.40
2018-08-10T23:55:54.572Z,7.83
2018-08-10T23:58:21.839Z,8.20
